Terminal Aerodrome Forecast
Issued by NWS Sioux Falls, SD

Home | Current Version | Previous Version | Graphics & Text | Print | Product List | Glossary On
Versions: 1 2 3 4 5 6 7 8 9 10 11 12 13 14 15 16 17 18 19 20 21 22 23 24 25 26 27 28 29 30 31
000
FTUS43 KFSD 191734
TAFSUX
TAF
KSUX 191734Z 1918/2018 19017G25KT P6SM SCT035 SCT100
     FM200200 22012KT P6SM VCTS SCT045CB BKN120
     FM200600 28007KT P6SM SCT045 BKN120
     FM201500 32012KT P6SM SKC=

USA.gov is the U.S. government's official web portal to all federal, state and local government web resources and services.